sensor_id;sensor_type;location;lat;lon;timestamp;temperature;humidity
16907;DHT22;8570;52.380;4.654;2022-08-01T00:03:13;19.30;99.90
16907;DHT22;8570;52.380;4.654;2022-08-01T00:08:15;19.20;99.90
16907;DHT22;8570;52.380;4.654;2022-08-01T00:13:17;19.30;99.90
16907;DHT22;8570;52.380;4.654;2022-08-01T00:18:20;19.20;99.90
16907;DHT22;8570;52.380;4.654;2022-08-01T00:23:22;19.20;99.90
16907;DHT22;8570;52.380;4.654;2022-08-01T00:28:24;19.20;99.90
16907;DHT22;8570;52.380;4.654;2022-08-01T00:33:27;19.20;99.90
16907;DHT22;8570;52.380;4.654;2022-08-01T00:38:29;19.10;99.90
16907;DHT22;8570;52.380;4.654;2022-08-01T00:43:31;19.10;99.90
16907;DHT22;8570;52.380;4.654;2022-08-01T00:48:35;19.10;99.90
16907;DHT22;8570;52.380;4.654;2022-08-01T00:53:39;19.10;99.90
16907;DHT22;8570;52.380;4.654;2022-08-01T00:58:41;19.00;99.90
16907;DHT22;8570;52.380;4.654;2022-08-01T01:03:44;19.10;99.90
16907;DHT22;8570;52.380;4.654;2022-08-01T01:08:55;19.00;99.90
16907;DHT22;8570;52.380;4.654;2022-08-01T01:14:05;19.00;99.90
16907;DHT22;8570;52.380;4.654;2022-08-01T01:19:18;19.00;99.90
16907;DHT22;8570;52.380;4.654;2022-08-01T01:24:34;19.00;99.90
16907;DHT22;8570;52.380;4.654;2022-08-01T01:29:44;19.00;99.90
16907;DHT22;8570;52.380;4.654;2022-08-01T01:34:50;19.00;99.90
16907;DHT22;8570;52.380;4.654;2022-08-01T01:39:53;19.00;99.90
16907;DHT22;8570;52.380;4.654;2022-08-01T01:44:57;19.00;99.90
16907;DHT22;8570;52.380;4.654;2022-08-01T01:50:00;19.00;99.90
16907;DHT22;8570;52.380;4.654;2022-08-01T01:55:06;19.00;99.90
16907;DHT22;8570;52.380;4.654;2022-08-01T02:00:12;19.00;99.90
16907;DHT22;8570;52.380;4.654;2022-08-01T02:05:15;19.00;99.90
16907;DHT22;8570;52.380;4.654;2022-08-01T02:10:17;19.00;99.90
16907;DHT22;8570;52.380;4.654;2022-08-01T02:15:23;19.00;99.90
16907;DHT22;8570;52.380;4.654;2022-08-01T02:20:27;19.00;99.90
16907;DHT22;8570;52.380;4.654;2022-08-01T02:25:33;19.00;99.90
16907;DHT22;8570;52.380;4.654;2022-08-01T02:30:42;19.00;99.90
16907;DHT22;8570;52.380;4.654;2022-08-01T02:35:48;19.00;99.90
16907;DHT22;8570;52.380;4.654;2022-08-01T02:40:53;19.00;99.90
16907;DHT22;8570;52.380;4.654;2022-08-01T02:46:02;19.00;99.90
16907;DHT22;8570;52.380;4.654;2022-08-01T02:51:06;19.00;99.90
16907;DHT22;8570;52.380;4.654;2022-08-01T02:56:10;19.00;99.90
16907;DHT22;8570;52.380;4.654;2022-08-01T03:01:15;19.00;99.90
16907;DHT22;8570;52.380;4.654;2022-08-01T03:06:18;19.00;99.90
16907;DHT22;8570;52.380;4.654;2022-08-01T03:11:21;19.00;99.90
16907;DHT22;8570;52.380;4.654;2022-08-01T03:16:26;19.00;99.90
16907;DHT22;8570;52.380;4.654;2022-08-01T03:21:29;18.90;99.90
16907;DHT22;8570;52.380;4.654;2022-08-01T03:26:35;18.90;99.90
16907;DHT22;8570;52.380;4.654;2022-08-01T03:31:40;18.90;99.90
16907;DHT22;8570;52.380;4.654;2022-08-01T03:36:48;18.90;99.90
16907;DHT22;8570;52.380;4.654;2022-08-01T03:41:54;18.90;99.90
16907;DHT22;8570;52.380;4.654;2022-08-01T03:47:02;18.90;99.90
16907;DHT22;8570;52.380;4.654;2022-08-01T03:52:07;18.90;99.90
16907;DHT22;8570;52.380;4.654;2022-08-01T03:57:10;18.90;99.90
16907;DHT22;8570;52.380;4.654;2022-08-01T04:02:14;18.90;99.90
16907;DHT22;8570;52.380;4.654;2022-08-01T04:07:25;18.90;99.90
16907;DHT22;8570;52.380;4.654;2022-08-01T04:12:27;18.90;99.90
16907;DHT22;8570;52.380;4.654;2022-08-01T04:17:30;18.80;99.90
16907;DHT22;8570;52.380;4.654;2022-08-01T04:22:33;18.90;99.90
16907;DHT22;8570;52.380;4.654;2022-08-01T04:27:40;18.90;99.90
16907;DHT22;8570;52.380;4.654;2022-08-01T04:32:46;18.80;99.90
16907;DHT22;8570;52.380;4.654;2022-08-01T04:37:49;18.80;99.90
16907;DHT22;8570;52.380;4.654;2022-08-01T04:42:52;18.80;99.90
16907;DHT22;8570;52.380;4.654;2022-08-01T04:47:57;18.80;99.90
16907;DHT22;8570;52.380;4.654;2022-08-01T04:53:00;18.80;99.90
16907;DHT22;8570;52.380;4.654;2022-08-01T04:58:03;18.70;99.90
16907;DHT22;8570;52.380;4.654;2022-08-01T05:03:07;18.70;99.90
16907;DHT22;8570;52.380;4.654;2022-08-01T05:08:09;18.70;99.90
16907;DHT22;8570;52.380;4.654;2022-08-01T05:13:11;18.70;99.90
16907;DHT22;8570;52.380;4.654;2022-08-01T05:18:14;18.70;99.90
16907;DHT22;8570;52.380;4.654;2022-08-01T05:23:16;18.60;99.90
16907;DHT22;8570;52.380;4.654;2022-08-01T05:28:18;18.60;99.90
16907;DHT22;8570;52.380;4.654;2022-08-01T05:33:22;18.60;99.90
16907;DHT22;8570;52.380;4.654;2022-08-01T05:38:24;18.60;99.90
16907;DHT22;8570;52.380;4.654;2022-08-01T05:43:26;18.50;99.90
16907;DHT22;8570;52.380;4.654;2022-08-01T05:48:29;18.50;99.90
16907;DHT22;8570;52.380;4.654;2022-08-01T05:53:31;18.50;99.90
16907;DHT22;8570;52.380;4.654;2022-08-01T05:58:34;18.50;99.90
16907;DHT22;8570;52.380;4.654;2022-08-01T06:03:38;18.50;99.90
16907;DHT22;8570;52.380;4.654;2022-08-01T06:08:39;18.40;99.90
16907;DHT22;8570;52.380;4.654;2022-08-01T06:13:41;18.40;99.90
16907;DHT22;8570;52.380;4.654;2022-08-01T06:18:44;18.40;99.90
16907;DHT22;8570;52.380;4.654;2022-08-01T06:23:46;18.40;99.90
16907;DHT22;8570;52.380;4.654;2022-08-01T06:28:48;18.40;99.90
16907;DHT22;8570;52.380;4.654;2022-08-01T06:33:52;18.40;99.90
16907;DHT22;8570;52.380;4.654;2022-08-01T06:38:53;18.40;99.90
16907;DHT22;8570;52.380;4.654;2022-08-01T06:43:55;18.50;99.90
16907;DHT22;8570;52.380;4.654;2022-08-01T06:48:58;18.60;99.90
16907;DHT22;8570;52.380;4.654;2022-08-01T06:54:00;18.60;99.90
16907;DHT22;8570;52.380;4.654;2022-08-01T06:59:02;18.60;99.90
16907;DHT22;8570;52.380;4.654;2022-08-01T07:04:06;18.60;99.90
16907;DHT22;8570;52.380;4.654;2022-08-01T07:09:08;18.70;99.90
16907;DHT22;8570;52.380;4.654;2022-08-01T07:14:10;18.60;99.90
16907;DHT22;8570;52.380;4.654;2022-08-01T07:19:13;18.60;99.90
16907;DHT22;8570;52.380;4.654;2022-08-01T07:24:15;18.70;99.90
16907;DHT22;8570;52.380;4.654;2022-08-01T07:29:17;18.70;99.90
16907;DHT22;8570;52.380;4.654;2022-08-01T07:34:21;18.70;99.90
16907;DHT22;8570;52.380;4.654;2022-08-01T07:39:23;18.70;99.90
16907;DHT22;8570;52.380;4.654;2022-08-01T07:44:31;18.80;99.90
16907;DHT22;8570;52.380;4.654;2022-08-01T07:49:35;18.90;99.90
16907;DHT22;8570;52.380;4.654;2022-08-01T07:54:37;19.00;99.90
16907;DHT22;8570;52.380;4.654;2022-08-01T07:59:38;19.10;99.90
16907;DHT22;8570;52.380;4.654;2022-08-01T08:04:42;19.10;99.90
16907;DHT22;8570;52.380;4.654;2022-08-01T08:09:44;19.30;99.90
16907;DHT22;8570;52.380;4.654;2022-08-01T08:14:46;19.40;99.90
16907;DHT22;8570;52.380;4.654;2022-08-01T08:19:49;19.40;99.90
16907;DHT22;8570;52.380;4.654;2022-08-01T08:24:51;19.50;99.90
16907;DHT22;8570;52.380;4.654;2022-08-01T08:29:53;19.70;99.90
16907;DHT22;8570;52.380;4.654;2022-08-01T08:34:56;19.90;99.90
16907;DHT22;8570;52.380;4.654;2022-08-01T08:39:58;20.10;99.90
16907;DHT22;8570;52.380;4.654;2022-08-01T08:45:00;20.30;99.90
16907;DHT22;8570;52.380;4.654;2022-08-01T08:50:04;20.40;99.90
16907;DHT22;8570;52.380;4.654;2022-08-01T08:55:08;20.60;99.90
16907;DHT22;8570;52.380;4.654;2022-08-01T09:00:12;20.70;99.90
16907;DHT22;8570;52.380;4.654;2022-08-01T09:05:16;20.80;99.90
16907;DHT22;8570;52.380;4.654;2022-08-01T09:10:25;20.90;99.90
16907;DHT22;8570;52.380;4.654;2022-08-01T09:15:38;21.10;99.90
16907;DHT22;8570;52.380;4.654;2022-08-01T09:20:41;21.40;99.90
16907;DHT22;8570;52.380;4.654;2022-08-01T09:25:52;21.70;99.90
16907;DHT22;8570;52.380;4.654;2022-08-01T09:30:55;22.00;99.90
16907;DHT22;8570;52.380;4.654;2022-08-01T09:35:59;22.10;99.90
16907;DHT22;8570;52.380;4.654;2022-08-01T09:41:01;22.20;99.90
16907;DHT22;8570;52.380;4.654;2022-08-01T09:46:08;22.20;99.90
16907;DHT22;8570;52.380;4.654;2022-08-01T09:51:14;22.40;99.90
16907;DHT22;8570;52.380;4.654;2022-08-01T09:56:36;22.50;99.90
16907;DHT22;8570;52.380;4.654;2022-08-01T10:01:43;22.60;99.90
16907;DHT22;8570;52.380;4.654;2022-08-01T10:06:48;22.60;99.90
16907;DHT22;8570;52.380;4.654;2022-08-01T10:11:54;22.60;99.90
16907;DHT22;8570;52.380;4.654;2022-08-01T10:16:58;22.50;99.90
16907;DHT22;8570;52.380;4.654;2022-08-01T10:22:07;22.70;99.90
16907;DHT22;8570;52.380;4.654;2022-08-01T10:27:10;22.80;99.90
16907;DHT22;8570;52.380;4.654;2022-08-01T10:32:12;22.90;99.90
16907;DHT22;8570;52.380;4.654;2022-08-01T10:37:15;23.00;99.90
16907;DHT22;8570;52.380;4.654;2022-08-01T10:42:19;23.00;99.90
16907;DHT22;8570;52.380;4.654;2022-08-01T10:47:25;23.00;99.90
16907;DHT22;8570;52.380;4.654;2022-08-01T10:52:30;23.10;99.90
16907;DHT22;8570;52.380;4.654;2022-08-01T10:57:42;23.20;99.90
16907;DHT22;8570;52.380;4.654;2022-08-01T11:02:57;23.40;99.90
16907;DHT22;8570;52.380;4.654;2022-08-01T11:08:07;23.50;99.90
16907;DHT22;8570;52.380;4.654;2022-08-01T11:13:11;23.60;99.90
16907;DHT22;8570;52.380;4.654;2022-08-01T11:18:29;23.80;99.90
16907;DHT22;8570;52.380;4.654;2022-08-01T11:23:47;23.90;99.90
16907;DHT22;8570;52.380;4.654;2022-08-01T11:29:17;24.10;99.80
16907;DHT22;8570;52.380;4.654;2022-08-01T11:34:19;24.20;99.50
16907;DHT22;8570;52.380;4.654;2022-08-01T11:39:23;24.30;99.40
16907;DHT22;8570;52.380;4.654;2022-08-01T11:44:25;24.50;99.40
16907;DHT22;8570;52.380;4.654;2022-08-01T11:49:54;24.80;98.40
16907;DHT22;8570;52.380;4.654;2022-08-01T11:55:06;25.00;98.20
16907;DHT22;8570;52.380;4.654;2022-08-01T12:00:11;25.20;98.20
16907;DHT22;8570;52.380;4.654;2022-08-01T12:05:15;25.40;98.00
16907;DHT22;8570;52.380;4.654;2022-08-01T12:10:24;25.70;97.60
16907;DHT22;8570;52.380;4.654;2022-08-01T12:15:31;25.80;97.20
16907;DHT22;8570;52.380;4.654;2022-08-01T12:20:35;25.80;96.70
16907;DHT22;8570;52.380;4.654;2022-08-01T12:25:39;25.80;96.20
16907;DHT22;8570;52.380;4.654;2022-08-01T12:30:47;25.70;95.60
16907;DHT22;8570;52.380;4.654;2022-08-01T12:35:49;25.60;96.00
16907;DHT22;8570;52.380;4.654;2022-08-01T12:40:54;25.50;95.40
16907;DHT22;8570;52.380;4.654;2022-08-01T12:45:59;25.50;95.50
16907;DHT22;8570;52.380;4.654;2022-08-01T12:51:02;25.60;94.70
16907;DHT22;8570;52.380;4.654;2022-08-01T12:56:06;25.70;95.20
16907;DHT22;8570;52.380;4.654;2022-08-01T13:01:11;25.80;95.60
16907;DHT22;8570;52.380;4.654;2022-08-01T13:06:14;25.70;93.00
16907;DHT22;8570;52.380;4.654;2022-08-01T13:11:18;25.40;92.10
16907;DHT22;8570;52.380;4.654;2022-08-01T13:16:22;25.30;92.10
16907;DHT22;8570;52.380;4.654;2022-08-01T13:21:27;25.20;93.40
16907;DHT22;8570;52.380;4.654;2022-08-01T13:26:41;25.30;93.40
16907;DHT22;8570;52.380;4.654;2022-08-01T13:31:44;25.40;93.30
16907;DHT22;8570;52.380;4.654;2022-08-01T13:36:46;25.50;94.30
16907;DHT22;8570;52.380;4.654;2022-08-01T13:41:49;25.60;93.70
16907;DHT22;8570;52.380;4.654;2022-08-01T13:46:51;25.70;93.50
16907;DHT22;8570;52.380;4.654;2022-08-01T13:51:53;25.70;93.20
16907;DHT22;8570;52.380;4.654;2022-08-01T13:56:57;25.70;92.60
16907;DHT22;8570;52.380;4.654;2022-08-01T14:01:59;25.80;92.30
16907;DHT22;8570;52.380;4.654;2022-08-01T14:07:01;25.90;91.50
16907;DHT22;8570;52.380;4.654;2022-08-01T14:12:04;26.10;91.30
16907;DHT22;8570;52.380;4.654;2022-08-01T14:17:06;26.30;92.10
16907;DHT22;8570;52.380;4.654;2022-08-01T14:22:11;26.60;92.00
16907;DHT22;8570;52.380;4.654;2022-08-01T14:27:14;26.90;91.40
16907;DHT22;8570;52.380;4.654;2022-08-01T14:32:16;27.20;90.90
16907;DHT22;8570;52.380;4.654;2022-08-01T14:37:18;27.20;90.50
16907;DHT22;8570;52.380;4.654;2022-08-01T14:42:21;27.40;89.20
16907;DHT22;8570;52.380;4.654;2022-08-01T14:47:23;27.30;87.90
16907;DHT22;8570;52.380;4.654;2022-08-01T14:52:25;27.30;88.50
16907;DHT22;8570;52.380;4.654;2022-08-01T14:57:28;27.30;87.60
16907;DHT22;8570;52.380;4.654;2022-08-01T15:02:30;27.30;88.20
16907;DHT22;8570;52.380;4.654;2022-08-01T15:07:34;27.40;88.70
16907;DHT22;8570;52.380;4.654;2022-08-01T15:12:38;27.50;88.20
16907;DHT22;8570;52.380;4.654;2022-08-01T15:17:42;27.60;88.90
16907;DHT22;8570;52.380;4.654;2022-08-01T15:22:45;27.70;87.40
16907;DHT22;8570;52.380;4.654;2022-08-01T15:27:49;27.80;87.90
16907;DHT22;8570;52.380;4.654;2022-08-01T15:32:51;27.80;87.60
16907;DHT22;8570;52.380;4.654;2022-08-01T15:37:53;27.90;85.00
16907;DHT22;8570;52.380;4.654;2022-08-01T15:42:56;27.70;84.40
16907;DHT22;8570;52.380;4.654;2022-08-01T15:47:59;27.50;81.40
16907;DHT22;8570;52.380;4.654;2022-08-01T15:53:01;27.40;78.60
16907;DHT22;8570;52.380;4.654;2022-08-01T15:58:04;27.10;79.60
16907;DHT22;8570;52.380;4.654;2022-08-01T16:03:06;26.90;79.40
16907;DHT22;8570;52.380;4.654;2022-08-01T16:08:09;26.80;79.00
16907;DHT22;8570;52.380;4.654;2022-08-01T16:13:13;26.70;80.90
16907;DHT22;8570;52.380;4.654;2022-08-01T16:18:15;26.70;81.20
16907;DHT22;8570;52.380;4.654;2022-08-01T16:23:17;26.60;81.50
16907;DHT22;8570;52.380;4.654;2022-08-01T16:28:20;26.60;82.30
16907;DHT22;8570;52.380;4.654;2022-08-01T16:33:23;26.60;82.20
16907;DHT22;8570;52.380;4.654;2022-08-01T16:38:24;26.60;81.30
16907;DHT22;8570;52.380;4.654;2022-08-01T16:43:28;26.30;80.30
16907;DHT22;8570;52.380;4.654;2022-08-01T16:48:30;26.20;80.30
16907;DHT22;8570;52.380;4.654;2022-08-01T16:53:33;26.10;80.90
16907;DHT22;8570;52.380;4.654;2022-08-01T16:58:36;25.90;80.70
16907;DHT22;8570;52.380;4.654;2022-08-01T17:03:38;25.80;80.50
16907;DHT22;8570;52.380;4.654;2022-08-01T17:08:40;25.70;80.90
16907;DHT22;8570;52.380;4.654;2022-08-01T17:13:43;25.50;80.60
16907;DHT22;8570;52.380;4.654;2022-08-01T17:18:45;25.40;79.60
16907;DHT22;8570;52.380;4.654;2022-08-01T17:23:47;25.20;79.30
16907;DHT22;8570;52.380;4.654;2022-08-01T17:28:51;25.10;81.30
16907;DHT22;8570;52.380;4.654;2022-08-01T17:33:53;24.90;81.20
16907;DHT22;8570;52.380;4.654;2022-08-01T17:38:56;24.70;81.10
16907;DHT22;8570;52.380;4.654;2022-08-01T17:44:00;24.50;81.50
16907;DHT22;8570;52.380;4.654;2022-08-01T17:49:02;24.30;81.70
16907;DHT22;8570;52.380;4.654;2022-08-01T17:54:08;24.20;83.40
16907;DHT22;8570;52.380;4.654;2022-08-01T17:59:11;24.00;84.20
16907;DHT22;8570;52.380;4.654;2022-08-01T18:04:13;23.90;84.20
16907;DHT22;8570;52.380;4.654;2022-08-01T18:09:15;23.70;83.90
16907;DHT22;8570;52.380;4.654;2022-08-01T18:14:18;23.60;85.50
16907;DHT22;8570;52.380;4.654;2022-08-01T18:19:24;23.40;85.90
16907;DHT22;8570;52.380;4.654;2022-08-01T18:24:35;23.30;89.60
16907;DHT22;8570;52.380;4.654;2022-08-01T18:29:38;23.20;90.80
16907;DHT22;8570;52.380;4.654;2022-08-01T18:34:40;23.00;91.50
16907;DHT22;8570;52.380;4.654;2022-08-01T18:39:42;22.90;91.80
16907;DHT22;8570;52.380;4.654;2022-08-01T18:44:45;22.80;92.10
16907;DHT22;8570;52.380;4.654;2022-08-01T18:49:47;22.70;92.30
16907;DHT22;8570;52.380;4.654;2022-08-01T18:54:49;22.60;92.70
16907;DHT22;8570;52.380;4.654;2022-08-01T18:59:53;22.50;92.70
16907;DHT22;8570;52.380;4.654;2022-08-01T19:04:55;22.30;92.90
16907;DHT22;8570;52.380;4.654;2022-08-01T19:09:57;22.20;93.10
16907;DHT22;8570;52.380;4.654;2022-08-01T19:15:00;22.10;93.60
16907;DHT22;8570;52.380;4.654;2022-08-01T19:20:03;22.00;93.70
16907;DHT22;8570;52.380;4.654;2022-08-01T19:25:05;21.90;93.70
16907;DHT22;8570;52.380;4.654;2022-08-01T19:30:10;21.80;93.90
16907;DHT22;8570;52.380;4.654;2022-08-01T19:35:13;21.70;94.20
16907;DHT22;8570;52.380;4.654;2022-08-01T19:40:16;21.50;94.20
16907;DHT22;8570;52.380;4.654;2022-08-01T19:45:22;21.40;94.40
16907;DHT22;8570;52.380;4.654;2022-08-01T19:50:25;21.30;94.60
16907;DHT22;8570;52.380;4.654;2022-08-01T19:55:29;21.20;94.60
16907;DHT22;8570;52.380;4.654;2022-08-01T20:00:32;21.10;94.80
16907;DHT22;8570;52.380;4.654;2022-08-01T20:05:37;20.90;95.20
16907;DHT22;8570;52.380;4.654;2022-08-01T20:10:39;20.80;95.20
16907;DHT22;8570;52.380;4.654;2022-08-01T20:15:43;20.70;95.30
16907;DHT22;8570;52.380;4.654;2022-08-01T20:20:46;20.70;95.60
16907;DHT22;8570;52.380;4.654;2022-08-01T20:25:50;20.50;95.90
16907;DHT22;8570;52.380;4.654;2022-08-01T20:30:55;20.40;95.90
16907;DHT22;8570;52.380;4.654;2022-08-01T20:35:58;20.30;95.90
16907;DHT22;8570;52.380;4.654;2022-08-01T20:41:01;20.20;96.40
16907;DHT22;8570;52.380;4.654;2022-08-01T20:46:05;20.10;96.20
16907;DHT22;8570;52.380;4.654;2022-08-01T20:51:07;20.00;96.10
16907;DHT22;8570;52.380;4.654;2022-08-01T20:56:27;19.90;96.40
16907;DHT22;8570;52.380;4.654;2022-08-01T21:01:33;19.80;96.30
16907;DHT22;8570;52.380;4.654;2022-08-01T21:06:41;19.70;96.50
16907;DHT22;8570;52.380;4.654;2022-08-01T21:11:57;19.70;96.60
16907;DHT22;8570;52.380;4.654;2022-08-01T21:17:07;19.60;96.70
16907;DHT22;8570;52.380;4.654;2022-08-01T21:22:19;19.40;96.80
16907;DHT22;8570;52.380;4.654;2022-08-01T21:27:21;19.40;97.10
16907;DHT22;8570;52.380;4.654;2022-08-01T21:32:28;19.30;97.20
16907;DHT22;8570;52.380;4.654;2022-08-01T21:37:30;19.20;97.50
16907;DHT22;8570;52.380;4.654;2022-08-01T21:42:33;19.20;97.50
16907;DHT22;8570;52.380;4.654;2022-08-01T21:47:38;19.10;97.60
16907;DHT22;8570;52.380;4.654;2022-08-01T21:52:43;19.00;97.70
16907;DHT22;8570;52.380;4.654;2022-08-01T21:58:00;19.00;97.90
16907;DHT22;8570;52.380;4.654;2022-08-01T22:03:18;18.90;97.90
16907;DHT22;8570;52.380;4.654;2022-08-01T22:08:27;18.80;97.80
16907;DHT22;8570;52.380;4.654;2022-08-01T22:13:30;18.70;97.80
16907;DHT22;8570;52.380;4.654;2022-08-01T22:18:34;18.70;97.90
16907;DHT22;8570;52.380;4.654;2022-08-01T22:23:36;18.60;98.00
16907;DHT22;8570;52.380;4.654;2022-08-01T22:28:39;18.50;98.30
16907;DHT22;8570;52.380;4.654;2022-08-01T22:33:45;18.50;98.60
16907;DHT22;8570;52.380;4.654;2022-08-01T22:38:48;18.40;98.40
16907;DHT22;8570;52.380;4.654;2022-08-01T22:43:55;18.40;98.50
16907;DHT22;8570;52.380;4.654;2022-08-01T22:49:05;18.30;98.60
16907;DHT22;8570;52.380;4.654;2022-08-01T22:54:12;18.20;98.40
16907;DHT22;8570;52.380;4.654;2022-08-01T22:59:16;18.10;98.40
16907;DHT22;8570;52.380;4.654;2022-08-01T23:04:24;18.10;98.40
16907;DHT22;8570;52.380;4.654;2022-08-01T23:09:29;18.00;98.50
16907;DHT22;8570;52.380;4.654;2022-08-01T23:14:35;18.00;98.50
16907;DHT22;8570;52.380;4.654;2022-08-01T23:19:38;17.90;98.60
16907;DHT22;8570;52.380;4.654;2022-08-01T23:24:42;17.90;98.50
16907;DHT22;8570;52.380;4.654;2022-08-01T23:29:49;17.80;98.60
16907;DHT22;8570;52.380;4.654;2022-08-01T23:34:52;17.80;98.50
16907;DHT22;8570;52.380;4.654;2022-08-01T23:39:54;17.70;98.70
16907;DHT22;8570;52.380;4.654;2022-08-01T23:44:56;17.70;98.80
16907;DHT22;8570;52.380;4.654;2022-08-01T23:49:59;17.60;99.10
16907;DHT22;8570;52.380;4.654;2022-08-01T23:55:01;17.60;98.80
